WETTERDATEN

GESTERN
Time Temp. Taup. r.Fe. Windrich Windstärke Windböe Druck
00:01 3.3 0.7 83 0 0 1007.3
00:11 3.4 0.8 83 0 0 1007.1
00:22 3.4 0.8 83 0 0 1007.2
00:32 3.6 1 83 0 0 1007.1
00:41 3.7 1.1 83 0 0 1007.2
00:52 3.9 1.3 83 0 0 1007
01:02 4.1 1.3 82 0 0 1007
01:12 4.2 1.4 82 0 0 1006.9
01:21 4.2 1.4 82 0 0 1006.7
01:32 4.3 1.5 82 0 0 1006.4
01:42 4.4 1.6 82 0 0 1006.4
01:52 4.5 1.5 81 0 0 1006.3
02:07 4.7 1.7 81 0 0 1006.3
02:16 4.8 1.6 80 0 0 1006.3
02:24 4.9 1.6 79 0 0 1006.2
02:33 5.1 1.8 79 0 0 1006.4
02:43 5.1 1.8 79 0 0 1006.2
02:54 5.2 1.9 79 0 0 1006.4
03:03 5.2 1.9 79 0 0 1006.3
03:13 5.3 2.1 80 0 0 1006.2
03:24 5.3 2.1 80 0 0 1006.3
03:34 5.4 2.2 80 0 0 1006.3
03:43 5.4 2.2 80 0 0 1006.2
03:53 5.4 2.2 80 0 0 1006.4
04:04 5.4 2.2 80 0 0 1006.2
04:14 5.4 2.2 80 0 0 1006.1
04:23 5.4 2.2 80 0 0 1006
05:25 5.4 2.7 83 0 0 1005.7
05:34 5.4 2.7 83 0 0 1005.8
05:45 5.5 2.8 83 0 0 1005.7
05:55 5.5 3 84 0 0 1005.6
06:05 5.4 2.9 84 0 0 1005.6
06:14 5.4 2.9 84 0 0 1005.6
06:25 5.4 3.1 85 0 0 1005.6
06:35 5.4 3.1 85 0 0 1005.5
06:45 5.4 3.1 85 0 0 1005.5
06:55 5.4 3.1 85 0 0 1005.5
07:05 5.4 3.1 85 0 0 1005.6
07:15 5.4 3.2 86 0 0 1005.6
07:25 5.3 3.2 86 0 0 1005.6
07:35 5.3 3.2 86 0 0 1005.7
07:45 5.3 3.2 86 0 0 1005.5
07:57 5.3 3.2 86 0 0 1005.4
08:06 5.3 3.3 87 0 0 1005.4
08:17 5.2 3.2 87 0 0 1005.5
09:21 5.2 3.4 88 0 0 1005.5
09:32 5.3 3.5 88 0 0 1005.5
09:42 5.3 3.6 89 0 0 1005.4
09:52 5.4 3.7 89 0 0 1005.4
10:02 5.4 3.7 89 0 0 1005.6
10:12 5.4 3.7 89 0 0 1005.6
10:22 5.5 3.8 89 0 0 1005.5
10:32 5.6 3.9 89 0 0 1005.6
10:42 5.8 4.1 89 0 0 1005.6
10:52 5.9 4.2 89 0 0 1005.6
11:02 6 4.2 88 0 0 1005.7
11:13 6.1 4.3 88 0 0 1005.6
11:22 6.3 4.5 88 0 0 1005.5
11:32 7.8 6.1 89 0 0 1005.7
11:43 8.5 6 84 0 0 1005.6
11:53 8.3 5.4 82 0 0 1005.3
12:02 8.3 5.4 82 0 0 1005.2
12:12 9.3 6.2 81 0 0 1005.1
12:23 11.2 7.5 78 0 0 1005
12:33 12.1 7.4 73 0 0 1004.9
12:42 12.3 6.6 68 0 0 1004.8
12:53 12.5 6.3 66 0 0 1004.6
13:03 11.8 5.4 65 0 0 1004.6
13:12 10.7 5 68 0 0 1004.5
13:23 10.2 4.8 69 0 0 1004.4
13:33 9.5 4.1 69 0 0 1004.3
13:43 9.1 4.1 71 0 0 1004.2
13:52 9 4.2 72 0 0 1004
14:03 8.7 3.7 71 0 0 1004.2
14:13 8.5 4.1 74 0 0 1004.1
14:23 8.2 3.7 73 0 0 1004
14:33 8 3.7 74 0 0 1004
14:43 8.5 4.5 76 0 0 1003.9
14:53 9 4.6 74 0 0 1003.9
15:03 9.1 4.1 71 0 0 1003.9
15:13 9.5 4.3 70 0 0 1003.7
15:23 9.2 3.6 68 0 0 1003.8
15:33 9.1 3.5 68 0 0 1004
15:43 8.7 3.1 68 0 0 1004
15:53 8 2.7 69 0 0 1005.1
16:03 6.8 2.3 73 0 0 1005.3
16:13 6.1 2.2 76 0 0 1005.1
16:24 5.6 1.9 77 0 0 1005.2
16:33 5.3 1.8 78 0 0 1005.4
16:43 5 1.7 79 0 0 1005.4
16:54 4.8 1.6 80 0 0 1005.8
17:03 4.5 1.4 80 0 0 1006.1
17:13 4.4 1.4 81 0 0 1006.1
17:23 4.2 1.2 81 0 0 1006.4
17:34 4.1 1.1 81 0 0 1006.6
17:43 4 1 81 0 0 1006.7
17:53 3.9 1.1 82 0 0 1007
18:04 3.8 1 82 0 0 1007.2
18:14 3.6 0.8 82 0 0 1007.4
18:23 3.6 0.8 82 0 0 1007.8
18:33 3.5 0.9 83 0 0 1008
18:44 3.5 0.9 83 0 0 1008
18:54 3.4 0.8 83 0 0 1008.3
19:03 3.4 0.8 83 0 0 1008.5
19:14 3.3 0.7 83 0 0 1008.7
19:24 3.3 0.7 83 0 0 1009
19:34 3.3 0.7 83 0 0 1009
19:44 3.3 0.5 82 0 0 1009.4
19:54 3.2 0.4 82 0 0 1009.2
20:04 3.1 0.3 82 0 0 1009.6
20:13 3 0.1 81 0 0 1009.8
20:24 3 0.1 81 0 0 1009.9
20:35 2.9 0 81 0 0 1010.1
20:44 2.9 0 81 0 0 1010.2
20:54 2.7 -0.4 80 0 0 1010.3
21:05 2.6 -0.4 80 0 0 1010.5
21:15 2.5 -0.5 80 0 0 1010.7
21:24 2.3 -0.7 80 0 0 1010.7
21:35 2.3 -0.7 80 0 0 1010.8
21:45 2.2 -0.8 80 0 0 1010.9
21:55 2.2 -0.8 80 0 0 1011.2
22:05 2.2 -0.8 80 0 0 1011.3
22:15 2.2 -0.8 80 0 0 1011.4
22:25 2.2 -0.8 80 0 0 1011.6
22:35 2.2 -0.8 80 0 0 1011.7
22:45 2.3 -0.7 80 0 0 1011.6
22:55 2.3 -0.8 79 0 0 1011.8
23:05 2.4 -0.8 79 0 0 1011.9
23:15 2.4 -0.8 79 0 0 1012
23:25 2.5 -0.7 79 0 0 1012.3
23:35 2.5 -0.7 79 0 0 1012.5
23:45 2.6 -0.6 79 0 0 1012.7
23:56 2.6 -0.6 79 0 0 1012.9

TAGESSTATISTIK

2019-01-17
TEMPERATUR
MITTEL
5.3
MAXIMUM
12.5
12:53
MINIMUM
2.2
21:45
LUFTDRUCK
MITTEL
1006.8
MAXIMUM
1012.9
23:56
MINIMUM
1003.7
15:13
TAUPUNKT
MITTEL
2.2
MAXIMUM
7.5
12:23
MINIMUM
-0.8
21:45
FEUCHTIGKEIT
MITTEL
80
MAXIMUM
89
09:42
MINIMUM
65
13:03
WINDSTÄRKE
MITTEL
0.0
MAXIMUM
0.0
11:30
WINDBÖE
MITTEL
0.0
MAXIMUM
0.0
11:30
WINDRICHTUNG
VORHERRSCHENDE
%
TEMPERATUR (°C)
MINIMUM
2.2
MAXIMUM
12.5
MITTEL
5.3
LUFTDRUCK (hpa)
MINIMUM
1003.7
MAXIMUM
1012.9
MITTEL
1006.8
MESSGERÄT